Time;durP1;ratioP1;P1;durP2;ratioP2;P2;SDS_P1;SDS_P2;PMS_P1;PMS_P2;Temp;Humidity;BMP_temperature;BMP_pressure;BME280_temperature;BME280_humidity;BME280_pressure;Samples;Min_cycle;Max_cycle;Signal;HPM_P1;HPM_P2
2022/01/23 00:01:08;;;;;;;31.95;18.38;;;6.40;99.90;;;;;;4847988;29;20048;-81
2022/01/23 00:03:35;;;;;;;30.63;18.58;;;6.40;99.90;;;;;;4863120;29;20104;-82
2022/01/23 00:06:01;;;;;;;30.20;18.63;;;6.40;99.90;;;;;;4838015;29;20052;-82
2022/01/23 00:08:41;;;;;;;33.58;20.05;;;6.50;99.90;;;;;;4867995;29;20039;-82
2022/01/23 00:11:26;;;;;;;32.72;21.48;;;6.40;99.90;;;;;;4862409;29;20501;-82
2022/01/23 00:19:09;;;;;;;37.97;21.05;;;6.50;99.90;;;;;;4847516;29;20061;-81
2022/01/23 00:21:37;;;;;;;46.97;26.00;;;6.50;99.90;;;;;;4862413;29;20037;-82
2022/01/23 00:32:00;;;;;;;51.42;28.35;;;6.50;99.90;;;;;;4861780;29;20041;-82
2022/01/23 00:34:33;;;;;;;47.10;28.70;;;6.50;99.90;;;;;;4878959;29;20052;-82
2022/01/23 00:37:22;;;;;;;;;;;6.50;99.90;;;;;;4853622;29;20037;-82
2022/01/23 00:40:05;;;;;;;47.40;26.35;;;6.50;99.90;;;;;;4849809;29;20257;-81
2022/01/23 00:42:47;;;;;;;47.35;27.20;;;6.50;99.90;;;;;;4850002;29;20415;-82
2022/01/23 00:45:35;;;;;;;52.08;30.13;;;6.50;99.90;;;;;;4879076;29;20060;-81
2022/01/23 00:48:06;;;;;;;54.63;29.98;;;6.50;99.90;;;;;;4866599;29;20037;-81
2022/01/23 00:50:40;;;;;;;56.33;32.63;;;6.50;99.90;;;;;;4854400;29;20056;-82
2022/01/23 00:53:10;;;;;;;54.80;31.70;;;6.50;99.90;;;;;;4882096;29;20040;-82
2022/01/23 00:55:47;;;;;;;48.60;29.60;;;6.50;99.90;;;;;;4862647;29;20455;-82
2022/01/23 00:58:20;;;;;;;54.25;32.13;;;6.50;99.90;;;;;;4851963;29;20052;-81
2022/01/23 01:00:50;;;;;;;56.63;33.65;;;6.50;99.90;;;;;;4837706;29;20045;-81
2022/01/23 01:03:17;;;;;;;60.45;34.67;;;6.50;99.90;;;;;;4861698;29;20043;-81
2022/01/23 01:05:43;;;;;;;63.38;33.88;;;6.50;99.90;;;;;;4831933;29;20068;-81
2022/01/23 01:08:13;;;;;;;50.90;31.17;;;6.50;99.90;;;;;;4848093;29;20417;-81
2022/01/23 01:10:49;;;;;;;57.53;34.47;;;6.50;99.90;;;;;;4878750;29;20032;-81
2022/01/23 01:35:46;;;;;;;59.85;34.80;;;6.50;99.90;;;;;;4877712;29;20107;-80
2022/01/23 01:38:13;;;;;;;58.53;33.42;;;6.50;99.90;;;;;;4860207;29;20298;-81
2022/01/23 01:40:41;;;;;;;55.90;33.65;;;6.50;99.90;;;;;;4857438;29;20033;-81
2022/01/23 01:43:10;;;;;;;55.65;33.22;;;6.50;99.90;;;;;;4857391;29;20036;-80
2022/01/23 01:45:40;;;;;;;49.10;27.80;;;6.50;99.90;;;;;;4829809;29;20033;-80
2022/01/23 01:48:24;;;;;;;56.35;32.80;;;6.50;99.90;;;;;;4873105;29;20045;-81
2022/01/23 01:51:11;;;;;;;52.67;32.08;;;6.50;99.90;;;;;;4846256;29;20032;-80
2022/01/23 01:53:55;;;;;;;55.45;33.45;;;6.50;99.90;;;;;;4847044;29;20033;-81
2022/01/23 01:56:25;;;;;;;59.83;35.40;;;6.40;99.90;;;;;;4848723;29;20048;-81
2022/01/23 01:59:12;;;;;;;55.55;33.92;;;6.50;99.90;;;;;;4869534;29;20044;-81
2022/01/23 02:10:48;;;;;;;53.65;32.28;;;6.50;99.90;;;;;;4864898;29;20073;-81
2022/01/23 02:13:30;;;;;;;58.40;33.75;;;6.50;99.90;;;;;;4848607;29;20037;-80
2022/01/23 02:52:44;;;;;;;60.63;35.28;;;6.40;99.90;;;;;;4865404;29;20045;-80
2022/01/23 02:55:13;;;;;;;54.70;30.77;;;6.40;99.90;;;;;;4864595;29;20040;-80
2022/01/23 03:00:12;;;;;;;55.03;31.63;;;6.40;99.90;;;;;;4854075;29;20040;-80
2022/01/23 03:03:14;;;;;;;59.90;32.08;;;6.40;99.90;;;;;;4808567;29;20046;-80
2022/01/23 03:14:21;;;;;;;56.67;32.25;;;6.50;99.90;;;;;;4866168;29;20463;-81
2022/01/23 03:28:18;;;;;;;54.33;31.17;;;6.40;99.90;;;;;;4837746;29;20041;-80
2022/01/23 03:31:08;;;;;;;52.40;31.15;;;6.40;99.90;;;;;;4854266;29;20041;-80
2022/01/23 03:33:36;;;;;;;55.20;30.15;;;6.40;99.90;;;;;;4845056;29;20405;-80
2022/01/23 03:36:04;;;;;;;53.17;31.50;;;6.40;99.90;;;;;;4838802;29;20041;-80
2022/01/23 03:38:33;;;;;;;58.03;33.30;;;6.40;99.90;;;;;;4852712;29;20048;-80
2022/01/23 03:41:06;;;;;;;57.65;32.75;;;6.50;99.90;;;;;;4851209;29;20045;-80
2022/01/23 03:43:37;;;;;;;52.45;32.55;;;6.40;99.90;;;;;;4848324;29;20046;-80
2022/01/23 03:46:33;;;;;;;55.30;32.13;;;6.40;99.90;;;;;;4836455;29;20489;-80
2022/01/23 03:51:52;;;;;;;51.65;30.35;;;6.50;99.90;;;;;;4829436;29;20045;-81
2022/01/23 03:54:23;;;;;;;53.53;31.63;;;6.40;99.90;;;;;;4848176;29;20474;-81
2022/01/23 03:56:50;;;;;;;53.97;32.05;;;6.40;99.90;;;;;;4863835;29;20289;-81
2022/01/23 03:59:17;;;;;;;54.22;32.40;;;6.40;99.90;;;;;;4836028;29;20042;-80
2022/01/23 04:01:46;;;;;;;49.78;29.48;;;6.40;99.90;;;;;;4823134;29;20052;-80
2022/01/23 04:04:37;;;;;;;53.38;31.98;;;6.40;99.90;;;;;;4852661;29;20032;-80
2022/01/23 04:07:20;;;;;;;48.38;29.55;;;6.40;99.90;;;;;;4838738;29;20044;-80
2022/01/23 04:09:48;;;;;;;55.45;30.35;;;6.40;99.90;;;;;;4850282;29;20057;-81
2022/01/23 04:15:10;;;;;;;53.80;30.40;;;6.40;99.90;;;;;;4850621;29;20033;-80
2022/01/23 04:32:05;;;;;;;45.75;26.88;;;6.40;99.90;;;;;;4861072;29;20064;-81
2022/01/23 04:45:36;;;;;;;43.00;26.63;;;6.40;99.90;;;;;;4867253;29;20063;-81
2022/01/23 05:05:00;;;;;;;48.08;27.45;;;6.20;99.90;;;;;;4878301;29;20167;-81
2022/01/23 05:07:34;;;;;;;44.45;25.88;;;6.20;99.90;;;;;;4882018;29;20037;-82
2022/01/23 05:10:12;;;;;;;41.20;24.77;;;6.20;99.90;;;;;;4854845;29;20036;-81
2022/01/23 05:12:47;;;;;;;41.67;24.98;;;6.20;99.90;;;;;;4863329;29;20468;-81
2022/01/23 05:15:22;;;;;;;37.85;23.92;;;6.20;99.90;;;;;;4879252;29;20033;-81
2022/01/23 05:18:04;;;;;;;;;;;6.20;99.90;;;;;;4879869;29;20036;-82
2022/01/23 05:20:31;;;;;;;40.47;23.90;;;6.20;99.90;;;;;;4868403;29;19911;-81
2022/01/23 05:23:03;;;;;;;37.20;22.73;;;6.20;99.90;;;;;;4884136;29;20048;-81
2022/01/23 05:25:38;;;;;;;38.75;23.75;;;6.20;99.90;;;;;;4854276;29;20052;-81
2022/01/23 05:28:12;;;;;;;39.22;22.83;;;6.20;99.90;;;;;;4847226;29;20029;-81
2022/01/23 05:30:45;;;;;;;43.75;26.77;;;6.20;99.90;;;;;;4889101;29;20033;-80
2022/01/23 05:33:11;;;;;;;39.25;24.08;;;6.10;99.90;;;;;;4854356;29;20048;-81
2022/01/23 05:35:38;;;;;;;39.33;25.38;;;6.20;99.90;;;;;;4871887;29;20039;-81
2022/01/23 05:38:05;;;;;;;36.05;23.58;;;6.10;99.90;;;;;;4853790;29;20036;-81
2022/01/23 05:40:33;;;;;;;45.03;26.90;;;6.10;99.90;;;;;;4841409;29;20154;-81
2022/01/23 05:43:01;;;;;;;38.83;24.25;;;6.10;99.90;;;;;;4874450;29;20342;-81
2022/01/23 05:45:28;;;;;;;39.15;24.85;;;6.10;99.90;;;;;;4868850;29;20033;-80
2022/01/23 05:48:11;;;;;;;34.88;22.33;;;6.10;99.90;;;;;;4860618;29;20392;-81
2022/01/23 05:50:52;;;;;;;39.28;24.27;;;6.00;99.90;;;;;;4880561;29;20506;-81
2022/01/23 05:53:42;;;;;;;37.70;23.55;;;6.00;99.90;;;;;;4838014;29;20462;-80
2022/01/23 05:56:26;;;;;;;43.35;24.13;;;6.00;99.90;;;;;;4865014;29;20048;-81
2022/01/23 05:58:56;;;;;;;42.53;24.58;;;6.00;99.90;;;;;;4867678;29;20044;-81
2022/01/23 06:01:33;;;;;;;37.15;22.95;;;6.00;99.90;;;;;;4840530;29;20048;-81
2022/01/23 06:04:08;;;;;;;37.03;22.02;;;5.90;99.90;;;;;;4850588;29;20060;-80
2022/01/23 06:06:58;;;;;;;36.63;21.80;;;5.90;99.90;;;;;;4864902;29;20400;-81
2022/01/23 06:09:25;;;;;;;34.78;21.17;;;6.00;99.90;;;;;;4866397;29;20037;-81
2022/01/23 06:11:53;;;;;;;32.35;19.05;;;5.90;99.90;;;;;;4879787;29;20039;-80
2022/01/23 06:14:20;;;;;;;32.95;19.95;;;5.90;99.90;;;;;;4882182;29;20489;-81
2022/01/23 06:16:48;;;;;;;28.13;18.55;;;6.00;99.90;;;;;;4866463;29;20037;-81
2022/01/23 06:19:43;;;;;;;28.02;17.52;;;6.00;99.90;;;;;;4877584;29;20167;-81
2022/01/23 06:22:39;;;;;;;29.90;18.45;;;5.90;99.90;;;;;;4864836;29;20055;-81
2022/01/23 06:25:32;;;;;;;28.13;17.77;;;6.00;99.90;;;;;;4860176;29;20067;-81
2022/01/23 06:28:08;;;;;;;24.67;15.93;;;6.00;99.90;;;;;;4868171;29;20044;-81
2022/01/23 06:30:37;;;;;;;26.15;15.23;;;6.00;99.90;;;;;;4868801;29;20044;-81
2022/01/23 06:33:05;;;;;;;27.33;17.13;;;6.00;99.90;;;;;;4862702;29;20048;-81
2022/01/23 06:35:39;;;;;;;27.95;16.60;;;6.00;99.90;;;;;;4848715;29;20029;-81
2022/01/23 06:38:06;;;;;;;27.70;16.95;;;6.00;99.90;;;;;;4855316;29;20055;-81
2022/01/23 06:40:35;;;;;;;23.15;15.13;;;6.00;99.90;;;;;;4856664;29;20041;-81
2022/01/23 06:43:15;;;;;;;26.45;16.98;;;6.00;99.90;;;;;;4838194;29;20056;-81
2022/01/23 06:45:58;;;;;;;22.98;14.43;;;6.00;99.90;;;;;;4851336;29;20057;-81
2022/01/23 06:48:25;;;;;;;23.52;15.32;;;6.00;99.90;;;;;;4840033;29;20028;-81
2022/01/23 06:50:55;;;;;;;20.67;13.60;;;6.00;99.90;;;;;;4870886;29;20524;-80
2022/01/23 06:53:22;;;;;;;17.15;11.18;;;6.00;99.90;;;;;;4851655;29;20196;-80
2022/01/23 06:55:49;;;;;;;17.23;11.10;;;6.00;99.90;;;;;;4857457;29;20040;-80
2022/01/23 06:58:16;;;;;;;15.63;10.50;;;6.00;99.90;;;;;;4840168;29;20037;-80
2022/01/23 07:00:46;;;;;;;15.82;10.02;;;6.00;99.90;;;;;;4865886;29;20069;-80
2022/01/23 07:03:28;;;;;;;14.70;8.82;;;6.00;99.90;;;;;;4855880;29;20044;-80
2022/01/23 07:06:32;;;;;;;11.65;8.20;;;6.00;99.90;;;;;;4866807;29;20032;-81
2022/01/23 07:09:10;;;;;;;11.98;8.25;;;6.00;99.90;;;;;;4839810;29;20041;-81
2022/01/23 07:11:46;;;;;;;11.38;7.28;;;6.10;99.90;;;;;;4868829;29;20397;-80
2022/01/23 07:14:38;;;;;;;12.23;8.32;;;6.10;99.90;;;;;;4864252;29;20555;-80
2022/01/23 07:17:21;;;;;;;14.93;9.02;;;6.10;99.90;;;;;;4866553;29;20033;-80
2022/01/23 07:19:50;;;;;;;16.73;9.18;;;6.10;99.90;;;;;;4868475;29;20044;-80
2022/01/23 07:22:27;;;;;;;17.80;11.02;;;6.10;99.90;;;;;;4868642;29;20037;-80
2022/01/23 07:24:54;;;;;;;17.30;12.20;;;6.10;99.90;;;;;;4854353;29;20060;-80
2022/01/23 07:27:23;;;;;;;21.70;14.85;;;6.10;99.90;;;;;;4854623;29;20472;-81
2022/01/23 07:29:53;;;;;;;29.48;17.25;;;6.10;99.90;;;;;;4855232;29;20041;-80
2022/01/23 07:32:22;;;;;;;17.95;12.27;;;6.10;99.90;;;;;;4866177;29;20059;-80
2022/01/23 07:34:49;;;;;;;29.10;17.70;;;6.10;99.90;;;;;;4841665;29;20029;-80
2022/01/23 07:37:21;;;;;;;28.77;18.45;;;6.10;99.90;;;;;;4834118;29;20053;-80
2022/01/23 07:40:12;;;;;;;29.33;18.40;;;6.10;99.90;;;;;;4866935;29;20040;-80
2022/01/23 07:42:51;;;;;;;26.55;17.20;;;6.10;99.90;;;;;;4849135;29;20041;-80
2022/01/23 07:45:40;;;;;;;25.38;16.83;;;6.10;99.90;;;;;;4865642;29;20053;-80
2022/01/23 07:48:26;;;;;;;26.05;16.73;;;6.10;99.90;;;;;;4871941;29;20503;-80
2022/01/23 07:51:21;;;;;;;27.07;17.40;;;6.10;99.90;;;;;;4853228;29;20044;-80
2022/01/23 07:54:00;;;;;;;25.30;15.80;;;6.10;99.90;;;;;;4869544;29;20029;-80
2022/01/23 07:56:53;;;;;;;22.95;15.50;;;6.10;99.90;;;;;;4892350;29;20049;-80
2022/01/23 07:59:48;;;;;;;24.23;15.07;;;6.10;99.90;;;;;;4843908;29;20036;-81
2022/01/23 08:02:42;;;;;;;20.20;13.52;;;6.10;99.90;;;;;;4863436;29;20045;-80
2022/01/23 08:05:31;;;;;;;23.58;15.82;;;6.20;99.90;;;;;;4866560;29;20060;-80
2022/01/23 08:08:19;;;;;;;24.00;16.42;;;6.20;99.90;;;;;;4877432;29;20043;-81
2022/01/23 08:11:14;;;;;;;26.02;17.35;;;6.20;99.90;;;;;;4887015;29;20048;-80
2022/01/23 08:13:42;;;;;;;23.98;16.42;;;6.20;99.90;;;;;;4870174;29;20044;-80
2022/01/23 08:16:11;;;;;;;25.85;17.63;;;6.20;99.90;;;;;;4852039;29;20492;-80
2022/01/23 08:18:37;;;;;;;26.40;16.20;;;6.20;99.90;;;;;;4882502;29;20056;-80
2022/01/23 08:21:05;;;;;;;28.80;18.50;;;6.20;99.90;;;;;;4870021;29;20037;-79
2022/01/23 08:23:32;;;;;;;26.10;17.25;;;6.30;99.90;;;;;;4862673;29;20512;-77
2022/01/23 08:26:01;;;;;;;25.20;16.92;;;6.30;99.90;;;;;;4853155;29;20056;-82
2022/01/23 08:28:27;;;;;;;25.90;17.75;;;6.40;99.90;;;;;;4849696;29;20400;-79
2022/01/23 08:30:54;;;;;;;22.80;15.57;;;6.30;99.90;;;;;;4866191;29;20032;-81
2022/01/23 08:33:21;;;;;;;24.45;17.48;;;6.40;99.90;;;;;;4839104;29;20049;-79
2022/01/23 08:35:47;;;;;;;24.13;15.98;;;6.40;99.90;;;;;;4849383;29;20482;-79
2022/01/23 08:38:14;;;;;;;24.75;16.77;;;6.50;99.90;;;;;;4846681;29;20069;-80
2022/01/23 08:43:11;;;;;;;28.70;16.85;;;6.50;99.90;;;;;;4860028;29;20037;-79
2022/01/23 08:45:39;;;;;;;25.02;17.13;;;6.50;99.90;;;;;;4848776;29;20456;-78
2022/01/23 08:48:06;;;;;;;26.10;17.70;;;6.50;99.90;;;;;;4834468;29;20040;-79
2022/01/23 08:50:32;;;;;;;25.48;17.58;;;6.50;99.90;;;;;;4847570;29;20476;-78
2022/01/23 08:52:59;;;;;;;23.83;16.23;;;6.60;99.90;;;;;;4864955;29;20038;-78
2022/01/23 08:55:25;;;;;;;26.08;18.23;;;6.60;99.90;;;;;;4850709;29;20049;-78
2022/01/23 08:57:52;;;;;;;25.95;18.25;;;6.70;99.90;;;;;;4870910;29;20500;-81
2022/01/23 09:00:19;;;;;;;27.27;17.63;;;6.70;99.90;;;;;;4859429;29;20064;-81
2022/01/23 09:02:45;;;;;;;25.55;16.63;;;6.70;99.90;;;;;;4860940;29;20040;-81
2022/01/23 09:05:11;;;;;;;28.17;18.50;;;6.80;99.90;;;;;;4847859;29;20033;-81
2022/01/23 09:07:38;;;;;;;26.25;17.38;;;6.80;99.90;;;;;;4844303;29;20048;-80
2022/01/23 09:10:05;;;;;;;25.63;17.17;;;6.80;99.90;;;;;;4838730;29;20040;-80
2022/01/23 09:15:05;;;;;;;25.23;16.77;;;6.90;99.90;;;;;;4846090;29;20048;-81
2022/01/23 09:17:32;;;;;;;23.88;16.90;;;6.90;99.90;;;;;;4837223;29;20051;-81
2022/01/23 09:19:59;;;;;;;23.67;16.00;;;7.00;99.90;;;;;;4847513;29;20048;-80
2022/01/23 09:22:29;;;;;;;25.20;16.67;;;7.00;99.90;;;;;;4851381;29;20057;-80
2022/01/23 09:24:58;;;;;;;26.17;17.60;;;7.00;99.90;;;;;;4858809;29;20061;-81
2022/01/23 09:27:24;;;;;;;25.55;18.52;;;7.10;99.90;;;;;;4844183;29;20518;-80
2022/01/23 09:29:53;;;;;;;25.73;18.10;;;7.10;99.90;;;;;;4863882;29;20029;-79
2022/01/23 09:32:25;;;;;;;22.27;15.90;;;7.10;99.90;;;;;;4843718;29;20045;-79
2022/01/23 09:34:52;;;;;;;22.40;14.55;;;7.10;99.90;;;;;;4848292;29;20533;-79
2022/01/23 09:37:19;;;;;;;19.98;13.43;;;7.20;99.90;;;;;;4840187;29;20056;-79
2022/01/23 09:39:51;;;;;;;17.77;12.38;;;7.20;99.90;;;;;;4826166;29;20037;-79
2022/01/23 09:42:23;;;;;;;12.48;9.10;;;7.20;99.90;;;;;;4841970;29;20041;-79
2022/01/23 09:44:52;;;;;;;8.48;5.72;;;7.20;99.90;;;;;;4852869;29;20072;-80
2022/01/23 09:47:31;;;;;;;5.10;3.65;;;7.20;99.90;;;;;;4844181;29;20045;-79
2022/01/23 09:50:03;;;;;;;3.58;2.33;;;7.30;99.90;;;;;;4860200;29;20044;-79
2022/01/23 09:53:07;;;;;;;12.35;9.48;;;7.30;99.90;;;;;;4835149;29;20041;-79
2022/01/23 09:55:41;;;;;;;16.95;12.20;;;7.40;99.90;;;;;;4859305;29;20041;-79
2022/01/23 09:58:11;;;;;;;17.63;12.85;;;7.40;99.90;;;;;;4861144;29;20409;-79
2022/01/23 10:00:37;;;;;;;17.88;13.68;;;7.40;99.90;;;;;;4828939;29;20049;-79
2022/01/23 10:03:10;;;;;;;18.73;14.38;;;7.40;99.90;;;;;;4816250;29;20041;-79
2022/01/23 10:05:42;;;;;;;20.15;15.00;;;7.50;99.90;;;;;;4843071;29;20049;-79
2022/01/23 10:08:30;;;;;;;17.20;12.95;;;7.60;99.90;;;;;;4848427;29;20042;-79
2022/01/23 10:11:12;;;;;;;18.55;13.15;;;7.60;99.90;;;;;;4842822;29;20040;-79
2022/01/23 10:13:45;;;;;;;19.33;14.65;;;7.60;99.90;;;;;;4860408;29;20033;-79
2022/01/23 10:16:18;;;;;;;22.15;15.35;;;7.70;99.90;;;;;;4831224;29;20042;-79
2022/01/23 10:18:48;;;;;;;20.90;15.10;;;7.70;99.90;;;;;;4828811;29;20044;-79
2022/01/23 10:21:21;;;;;;;20.88;15.20;;;7.80;99.90;;;;;;4863499;29;20033;-79
2022/01/23 10:23:49;;;;;;;20.75;14.93;;;7.80;99.90;;;;;;4811613;29;20045;-79
2022/01/23 10:26:47;;;;;;;22.73;15.02;;;7.80;99.90;;;;;;4849640;29;20505;-79
2022/01/23 10:29:18;;;;;;;22.55;17.13;;;7.80;99.90;;;;;;4826906;29;20060;-79
2022/01/23 10:32:21;;;;;;;20.23;16.02;;;7.90;99.90;;;;;;4859491;29;20100;-80
2022/01/23 10:34:57;;;;;;;21.48;16.17;;;7.90;99.90;;;;;;4798270;29;20043;-79
2022/01/23 10:37:29;;;;;;;20.20;15.43;;;7.90;99.90;;;;;;4835011;29;20057;-79
2022/01/23 10:39:56;;;;;;;20.98;16.00;;;8.00;99.90;;;;;;4845359;29;20486;-80
2022/01/23 10:50:44;;;;;;;18.08;13.65;;;8.10;99.90;;;;;;4825431;29;20049;-80
2022/01/23 10:53:10;;;;;;;16.25;13.00;;;8.10;99.90;;;;;;4816156;29;20040;-80
2022/01/23 10:55:37;;;;;;;16.65;12.48;;;8.10;99.90;;;;;;4827012;29;20053;-80
2022/01/23 10:58:06;;;;;;;18.38;12.80;;;8.10;99.90;;;;;;4825043;29;20033;-80
2022/01/23 11:00:38;;;;;;;16.08;12.38;;;8.10;99.90;;;;;;4825838;29;20490;-80
2022/01/23 11:03:22;;;;;;;15.35;11.82;;;8.10;99.90;;;;;;4862473;29;20048;-80
2022/01/23 11:05:52;;;;;;;16.15;11.77;;;8.00;99.90;;;;;;4827698;29;20375;-80
2022/01/23 11:08:32;;;;;;;13.85;11.05;;;8.10;99.90;;;;;;4829694;29;20041;-80
2022/01/23 11:11:04;;;;;;;15.18;11.52;;;8.00;99.90;;;;;;4825147;29;20386;-80
2022/01/23 11:19:26;;;;;;;14.57;11.38;;;8.10;99.90;;;;;;4847606;29;20060;-80
2022/01/23 11:21:53;;;;;;;10.60;8.27;;;8.10;99.90;;;;;;4835977;29;20414;-80
2022/01/23 11:24:21;;;;;;;11.90;8.63;;;8.10;99.90;;;;;;4829379;29;20367;-80
2022/01/23 11:26:49;;;;;;;10.82;8.77;;;8.10;99.90;;;;;;4851635;29;20055;-80
2022/01/23 11:29:18;;;;;;;10.05;8.02;;;8.10;99.90;;;;;;4838108;29;20044;-80
2022/01/23 11:31:45;;;;;;;9.23;7.10;;;8.10;99.90;;;;;;4833475;29;20036;-80
2022/01/23 11:34:13;;;;;;;11.32;8.65;;;8.20;99.90;;;;;;4865222;29;20033;-80
2022/01/23 11:36:40;;;;;;;10.23;7.75;;;8.20;99.90;;;;;;4862021;29;20501;-80
2022/01/23 11:39:15;;;;;;;10.60;8.50;;;8.20;99.90;;;;;;4853480;29;20460;-80
2022/01/23 11:50:44;;;;;;;13.73;10.68;;;8.20;99.90;;;;;;4872224;29;20048;-80
2022/01/23 11:56:42;;;;;;;9.75;7.82;;;8.20;99.90;;;;;;4887399;29;20036;-80
2022/01/23 11:59:50;;;;;;;9.52;6.28;;;8.20;99.90;;;;;;4868247;29;20056;-80
2022/01/23 12:02:37;;;;;;;8.48;5.75;;;8.20;99.90;;;;;;4869239;29;20045;-80
2022/01/23 12:05:10;;;;;;;8.55;5.85;;;8.10;99.90;;;;;;4886280;29;20036;-80
2022/01/23 12:07:40;;;;;;;6.75;5.07;;;8.10;99.90;;;;;;4887547;29;20028;-81
2022/01/23 12:10:19;;;;;;;7.78;5.72;;;8.10;99.90;;;;;;4882768;29;20052;-80
2022/01/23 12:12:49;;;;;;;6.13;4.47;;;8.10;99.90;;;;;;4852430;29;20519;-80
2022/01/23 12:18:40;;;;;;;7.57;4.38;;;8.00;99.90;;;;;;4838808;29;20049;-80
2022/01/23 12:21:31;;;;;;;6.03;4.88;;;8.00;99.90;;;;;;4883318;29;20032;-80
2022/01/23 12:24:04;;;;;;;6.47;4.15;;;8.00;99.90;;;;;;4870111;29;20045;-80
2022/01/23 12:26:36;;;;;;;4.35;3.17;;;8.00;99.90;;;;;;4862955;29;20519;-79
2022/01/23 12:29:12;;;;;;;4.20;3.38;;;8.00;99.90;;;;;;4863386;29;20056;-80
2022/01/23 12:31:41;;;;;;;5.20;3.70;;;8.00;99.90;;;;;;4836529;29;20033;-80
2022/01/23 12:34:07;;;;;;;5.82;4.03;;;8.00;99.90;;;;;;4876462;29;20381;-80
2022/01/23 12:36:37;;;;;;;4.55;3.35;;;8.00;99.90;;;;;;4864207;29;20036;-80
2022/01/23 12:39:13;;;;;;;4.35;3.15;;;8.00;99.90;;;;;;4860667;29;20389;-80
2022/01/23 12:41:46;;;;;;;1.88;1.30;;;8.00;99.90;;;;;;4862414;29;20059;-80
2022/01/23 12:44:27;;;;;;;1.45;0.80;;;8.00;99.90;;;;;;4844505;29;20096;-80
2022/01/23 12:46:55;;;;;;;2.30;0.90;;;8.00;99.90;;;;;;4883397;29;20029;-80
2022/01/23 12:49:22;;;;;;;0.98;0.57;;;8.00;99.90;;;;;;4846683;29;20038;-80
2022/01/23 12:52:11;;;;;;;1.27;0.50;;;7.90;99.90;;;;;;4848855;29;20025;-80
2022/01/23 12:54:55;;;;;;;1.40;0.60;;;7.90;99.90;;;;;;4881187;29;20490;-80
2022/01/23 12:57:40;;;;;;;0.98;0.50;;;7.90;99.90;;;;;;4862599;29;20037;-78
2022/01/23 13:00:18;;;;;;;1.63;0.50;;;7.90;99.90;;;;;;4861789;29;20052;-80
2022/01/23 13:02:56;;;;;;;1.15;0.50;;;8.00;99.90;;;;;;4866150;29;20068;-79
2022/01/23 13:05:25;;;;;;;0.88;0.40;;;8.00;99.90;;;;;;4875018;29;20041;-79
2022/01/23 13:08:08;;;;;;;0.70;0.50;;;8.00;99.90;;;;;;4861687;29;20052;-80
2022/01/23 13:28:25;;;;;;;0.65;0.40;;;8.20;99.90;;;;;;4858984;29;20394;-78
2022/01/23 13:30:32;;;;;;;0.70;0.52;;;8.20;99.90;;;;;;4876520;29;20044;-78
2022/01/23 13:33:22;;;;;;;1.35;0.40;;;8.30;99.90;;;;;;4879786;29;20037;-79
2022/01/23 13:35:53;;;;;;;2.07;0.50;;;8.30;99.90;;;;;;4879535;29;20040;-79
2022/01/23 13:38:34;;;;;;;1.58;0.60;;;8.30;99.90;;;;;;4877810;29;20037;-79
2022/01/23 13:41:10;;;;;;;1.17;0.40;;;8.30;99.90;;;;;;4864448;29;20258;-79
2022/01/23 13:52:42;;;;;;;1.30;0.70;;;8.40;99.90;;;;;;4874157;29;20048;-79
2022/01/23 13:58:32;;;;;;;1.45;0.88;;;8.30;99.90;;;;;;4832444;29;20048;-79
2022/01/23 14:01:20;;;;;;;1.38;0.80;;;8.40;99.90;;;;;;4858231;29;20048;-79
2022/01/23 14:03:49;;;;;;;1.40;0.70;;;8.40;99.90;;;;;;4873664;29;20389;-79
2022/01/23 14:06:15;;;;;;;1.55;0.80;;;8.40;99.90;;;;;;4860970;29;20493;-79
2022/01/23 14:09:04;;;;;;;1.63;0.80;;;8.40;99.90;;;;;;4861947;29;20049;-79
2022/01/23 14:11:45;;;;;;;1.83;0.88;;;8.40;99.90;;;;;;4877529;29;20025;-80
2022/01/23 14:14:14;;;;;;;1.90;0.70;;;8.40;99.90;;;;;;4844905;29;20477;-79
2022/01/23 14:19:34;;;;;;;2.65;1.42;;;8.40;99.90;;;;;;4847461;29;20416;-79
2022/01/23 14:22:17;;;;;;;6.30;3.80;;;8.30;99.90;;;;;;4823515;29;20128;-79
2022/01/23 14:25:27;;;;;;;4.72;3.08;;;8.30;99.90;;;;;;4872299;29;20417;-79
2022/01/23 14:28:21;;;;;;;5.10;3.90;;;8.30;99.90;;;;;;4859865;29;20120;-79
2022/01/23 14:30:59;;;;;;;5.80;3.67;;;8.20;99.90;;;;;;4859298;29;20049;-79
2022/01/23 14:33:34;;;;;;;4.22;3.35;;;8.20;99.90;;;;;;4880009;29;20473;-79
2022/01/23 14:36:21;;;;;;;5.45;4.18;;;8.20;99.90;;;;;;4857999;29;20510;-79
2022/01/23 14:39:01;;;;;;;4.35;3.13;;;8.20;99.90;;;;;;4864334;29;20048;-79
2022/01/23 14:41:33;;;;;;;5.85;3.75;;;8.20;99.90;;;;;;4864750;29;20493;-79
2022/01/23 14:44:27;;;;;;;5.33;4.67;;;8.10;99.90;;;;;;4865832;29;20056;-78
2022/01/23 14:47:05;;;;;;;7.20;4.47;;;8.10;99.90;;;;;;4866104;29;20297;-79
2022/01/23 14:49:33;;;;;;;7.78;6.10;;;8.00;99.90;;;;;;4864177;29;20497;-79
2022/01/23 14:52:40;;;;;;;11.18;6.60;;;8.00;99.90;;;;;;4868677;29;20044;-79
2022/01/23 14:55:17;;;;;;;10.93;7.05;;;8.00;99.90;;;;;;4861800;29;20041;-79
2022/01/23 14:57:45;;;;;;;9.05;6.15;;;7.90;99.90;;;;;;4863583;29;20055;-79
2022/01/23 15:00:17;;;;;;;7.75;5.60;;;7.90;99.90;;;;;;4881499;29;20036;-79
2022/01/23 15:02:44;;;;;;;7.78;6.30;;;7.90;99.90;;;;;;4879737;29;20044;-79
2022/01/23 15:05:12;;;;;;;8.65;5.85;;;7.80;99.90;;;;;;4881507;29;20461;-79
2022/01/23 15:07:46;;;;;;;10.13;6.85;;;7.80;99.90;;;;;;4879395;29;20029;-79
2022/01/23 15:10:18;;;;;;;12.50;9.70;;;7.70;99.90;;;;;;4868256;29;20481;-79
2022/01/23 15:12:52;;;;;;;12.30;8.98;;;7.70;99.90;;;;;;4863446;29;20048;-79
2022/01/23 15:15:24;;;;;;;10.40;7.32;;;7.70;99.90;;;;;;4848841;29;20068;-80
2022/01/23 15:17:55;;;;;;;10.15;6.75;;;7.60;99.90;;;;;;4847126;29;20064;-78
2022/01/23 15:20:23;;;;;;;10.95;6.82;;;7.60;99.90;;;;;;4864071;29;20478;-78
2022/01/23 15:22:51;;;;;;;10.45;6.90;;;7.60;99.90;;;;;;4850617;29;20416;-79
2022/01/23 15:25:19;;;;;;;9.85;7.05;;;7.60;99.90;;;;;;4848761;29;20037;-78
2022/01/23 15:27:47;;;;;;;9.80;6.70;;;7.60;99.90;;;;;;4861444;29;20040;-78
2022/01/23 15:30:16;;;;;;;8.60;6.20;;;7.50;99.90;;;;;;4848687;29;20032;-78
2022/01/23 15:32:48;;;;;;;10.00;7.55;;;7.60;99.90;;;;;;4863266;29;20576;-79
2022/01/23 15:35:15;;;;;;;11.23;6.03;;;7.50;99.90;;;;;;4847686;29;20044;-79
2022/01/23 15:37:46;;;;;;;11.70;6.38;;;7.50;99.90;;;;;;4863940;29;20029;-80
2022/01/23 15:40:19;;;;;;;9.95;7.13;;;7.50;99.90;;;;;;4861432;29;20366;-80
2022/01/23 15:42:50;;;;;;;7.82;6.15;;;7.50;99.90;;;;;;4859868;29;20339;-79
2022/01/23 15:45:22;;;;;;;11.27;7.10;;;7.50;99.90;;;;;;4860749;29;20040;-80
2022/01/23 15:47:49;;;;;;;12.82;8.00;;;7.40;99.90;;;;;;4861890;29;20033;-80
2022/01/23 15:50:19;;;;;;;11.88;7.50;;;7.40;99.90;;;;;;4864097;29;20488;-79
2022/01/23 15:52:46;;;;;;;9.15;6.70;;;7.40;99.90;;;;;;4832214;29;20037;-80
2022/01/23 15:55:18;;;;;;;10.02;6.22;;;7.30;99.90;;;;;;4863776;29;20049;-80
2022/01/23 15:58:05;;;;;;;8.88;6.15;;;7.30;99.90;;;;;;4866739;29;20320;-80
2022/01/23 16:00:36;;;;;;;8.70;6.70;;;7.30;99.90;;;;;;4863061;29;20033;-80
2022/01/23 16:03:03;;;;;;;8.48;6.07;;;7.30;99.90;;;;;;4872569;29;20425;-79
2022/01/23 16:05:32;;;;;;;8.90;6.10;;;7.30;99.90;;;;;;4863594;29;20041;-79
2022/01/23 16:07:59;;;;;;;8.55;6.07;;;7.30;99.90;;;;;;4863205;29;20041;-79
2022/01/23 16:10:27;;;;;;;9.75;6.50;;;7.20;99.90;;;;;;4875833;29;20511;-79
2022/01/23 16:12:56;;;;;;;8.90;6.93;;;7.30;99.90;;;;;;4848841;29;20037;-78
2022/01/23 16:15:23;;;;;;;9.70;6.35;;;7.20;99.90;;;;;;4858903;29;20469;-79
2022/01/23 16:17:50;;;;;;;9.65;6.97;;;7.20;99.90;;;;;;4874571;29;20037;-78
2022/01/23 16:20:23;;;;;;;10.98;7.50;;;7.20;99.90;;;;;;4880024;29;20048;-79
2022/01/23 16:22:52;;;;;;;9.10;6.90;;;7.20;99.90;;;;;;4859692;29;20041;-79
2022/01/23 16:25:22;;;;;;;8.85;6.45;;;7.20;99.90;;;;;;4825985;29;20581;-79
2022/01/23 16:27:53;;;;;;;11.77;8.30;;;7.20;99.90;;;;;;4864482;29;20044;-79
2022/01/23 16:30:40;;;;;;;14.00;8.35;;;7.20;99.90;;;;;;4864045;29;20044;-80
2022/01/23 16:33:06;;;;;;;9.15;6.70;;;7.20;99.90;;;;;;4863615;29;20044;-81
2022/01/23 16:35:38;;;;;;;9.43;7.13;;;7.20;99.90;;;;;;4848905;29;20040;-81
2022/01/23 16:38:08;;;;;;;10.73;7.65;;;7.20;99.90;;;;;;4879891;29;20045;-81
2022/01/23 16:40:40;;;;;;;9.88;7.00;;;7.10;99.90;;;;;;4836864;29;20413;-80
2022/01/23 16:43:06;;;;;;;10.80;7.70;;;7.10;99.90;;;;;;4870701;29;20072;-81
2022/01/23 16:45:34;;;;;;;10.35;7.25;;;7.10;99.90;;;;;;4866001;29;20385;-80
2022/01/23 16:48:03;;;;;;;10.75;7.30;;;7.10;99.90;;;;;;4847410;29;20033;-80
2022/01/23 16:50:31;;;;;;;10.02;6.55;;;7.10;99.90;;;;;;4866774;29;20033;-80
2022/01/23 16:53:01;;;;;;;9.40;7.60;;;7.10;99.90;;;;;;4835982;29;20537;-81
2022/01/23 16:55:27;;;;;;;10.32;7.57;;;7.10;99.90;;;;;;4848841;29;20437;-81
2022/01/23 16:57:54;;;;;;;10.60;7.00;;;7.10;99.90;;;;;;4879634;29;20536;-81